Time;durP1;ratioP1;P1;durP2;ratioP2;P2;SDS_P1;SDS_P2;PMS_P1;PMS_P2;Temp;Humidity;BMP_temperature;BMP_pressure;BME280_temperature;BME280_humidity;BME280_pressure;Samples;Min_cycle;Max_cycle;Signal;HPM_P1;HPM_P2
2023/07/10 00:01:29;;;;;;;0.75;0.60;;;;;;;25.99;100.00;100283.50;4923186;29;20237;-91
2023/07/10 00:03:56;;;;;;;0.55;0.55;;;;;;;25.87;100.00;100286.91;4914770;29;20690;-90
2023/07/10 00:06:23;;;;;;;0.88;0.80;;;;;;;25.85;100.00;100322.22;4940735;29;20229;-91
2023/07/10 00:08:50;;;;;;;0.70;0.70;;;;;;;25.63;100.00;100332.44;4923329;29;20226;-91
2023/07/10 00:11:25;;;;;;;0.60;0.60;;;;;;;25.47;100.00;100356.78;4924225;29;20347;-91
2023/07/10 00:13:54;;;;;;;1.25;1.08;;;;;;;25.58;100.00;100346.25;4920383;29;20220;-90
2023/07/10 00:16:22;;;;;;;0.95;0.70;;;;;;;25.63;100.00;100352.28;4935624;29;20229;-90
2023/07/10 00:18:49;;;;;;;0.68;0.68;;;;;;;25.68;100.00;100346.66;4943829;29;20229;-90
2023/07/10 00:21:20;;;;;;;0.50;0.50;;;;;;;25.56;100.00;100347.28;4932646;28;20280;-89
2023/07/10 00:23:47;;;;;;;1.17;1.08;;;;;;;25.33;100.00;100352.09;4944238;29;20235;-90
2023/07/10 00:26:22;;;;;;;13.40;3.17;;;;;;;25.17;100.00;100362.88;4938921;29;20288;-90
2023/07/10 00:28:52;;;;;;;0.98;0.90;;;;;;;25.22;100.00;100394.22;4942551;29;20227;-89
2023/07/10 00:31:19;;;;;;;0.60;0.60;;;;;;;25.07;100.00;100404.00;4936798;29;20233;-90
2023/07/10 00:33:49;;;;;;;0.88;0.65;;;;;;;25.05;100.00;100411.34;4926421;29;20229;-91
2023/07/10 00:36:30;;;;;;;0.80;0.70;;;;;;;25.02;100.00;100408.78;4936099;29;20252;-90
2023/07/10 00:39:00;;;;;;;0.85;0.77;;;;;;;25.01;100.00;100401.63;4922498;29;20571;-91
2023/07/10 00:41:32;;;;;;;0.98;0.80;;;;;;;24.96;100.00;100428.00;4927178;29;20257;-90
2023/07/10 00:44:03;;;;;;;15.02;4.40;;;;;;;24.90;100.00;100442.72;4905917;29;20239;-90
2023/07/10 00:46:35;;;;;;;0.70;0.60;;;;;;;24.78;100.00;100443.31;4925845;29;20237;-90
2023/07/10 00:49:13;;;;;;;14.57;5.38;;;;;;;24.74;100.00;100464.22;4921604;29;20321;-90
2023/07/10 00:51:44;;;;;;;0.95;0.75;;;;;;;24.74;100.00;100487.69;4925819;29;20232;-90
2023/07/10 00:54:22;;;;;;;14.02;4.38;;;;;;;24.69;100.00;100493.28;4937111;29;20232;-89
2023/07/10 00:56:53;;;;;;;0.50;0.50;;;;;;;24.62;100.00;100509.88;4926421;29;20232;-89
2023/07/10 00:59:23;;;;;;;0.75;0.75;;;;;;;24.60;100.00;100525.31;4912116;29;20261;-90
2023/07/10 01:02:12;;;;;;;1.05;0.95;;;;;;;24.39;100.00;100547.00;4920940;29;20732;-90
2023/07/10 01:04:41;;;;;;;0.57;0.50;;;;;;;23.90;100.00;100564.50;4941025;29;20257;-90
2023/07/10 01:07:10;;;;;;;17.38;5.05;;;;;;;23.79;100.00;100594.69;4932686;29;20317;-90
2023/07/10 01:09:39;;;;;;;0.47;0.47;;;;;;;23.65;100.00;100623.22;4923667;29;20229;-90
2023/07/10 01:12:06;;;;;;;13.75;5.55;;;;;;;23.92;100.00;100636.44;4933330;28;20723;-89
2023/07/10 01:14:34;;;;;;;0.88;0.82;;;;;;;23.92;100.00;100630.16;4921657;29;20229;-90
2023/07/10 01:17:06;;;;;;;10.95;3.83;;;;;;;23.97;100.00;100636.22;4919126;29;20232;-90
2023/07/10 01:19:35;;;;;;;0.70;0.70;;;;;;;24.00;100.00;100627.13;4923778;29;20320;-88
2023/07/10 01:22:03;;;;;;;8.23;3.63;;;;;;;23.42;100.00;100627.72;4924919;29;20652;-90
2023/07/10 01:24:30;;;;;;;0.85;0.82;;;;;;;23.58;100.00;100658.56;4937529;29;20225;-90
2023/07/10 01:26:57;;;;;;;0.88;0.80;;;;;;;23.77;100.00;100652.41;4920962;29;20239;-89
2023/07/10 01:29:42;;;;;;;0.80;0.73;;;;;;;23.94;100.00;100650.75;4937760;29;20308;-90
2023/07/10 01:32:12;;;;;;;5.75;2.28;;;;;;;24.05;100.00;100625.97;4930180;29;20288;-91
2023/07/10 01:34:41;;;;;;;0.60;0.57;;;;;;;24.16;100.00;100603.88;4940709;29;20229;-90
2023/07/10 01:37:11;;;;;;;15.27;4.63;;;;;;;24.31;100.00;100597.81;4918457;29;20253;-90
2023/07/10 01:39:40;;;;;;;1.15;1.00;;;;;;;24.23;100.00;100627.84;4909312;29;20288;-90
2023/07/10 01:42:07;;;;;;;16.27;6.80;;;;;;;24.18;100.00;100612.78;4894067;29;20248;-90
2023/07/10 01:44:37;;;;;;;0.70;0.70;;;;;;;24.14;100.00;100606.66;4937270;29;20229;-90
2023/07/10 01:47:07;;;;;;;15.40;5.97;;;;;;;24.04;100.00;100605.28;4920956;29;20241;-90
2023/07/10 01:49:41;;;;;;;0.50;0.50;;;;;;;24.10;100.00;100607.72;4939345;29;20234;-89
2023/07/10 01:52:14;;;;;;;11.18;3.90;;;;;;;23.98;100.00;100610.09;4914116;29;20550;-89
2023/07/10 01:54:41;;;;;;;0.80;0.70;;;;;;;23.96;100.00;100611.97;4938510;29;20317;-89
2023/07/10 01:57:09;;;;;;;14.95;4.88;;;;;;;24.02;100.00;100614.41;4934899;29;20229;-90
2023/07/10 01:59:36;;;;;;;1.05;0.80;;;;;;;24.12;100.00;100586.91;4919874;29;20232;-90
2023/07/10 02:02:04;;;;;;;15.52;5.20;;;;;;;24.16;100.00;100602.06;4936182;29;20225;-90
2023/07/10 02:04:31;;;;;;;1.08;0.90;;;;;;;24.28;100.00;100595.25;4942374;29;20228;-89
2023/07/10 02:06:58;;;;;;;4.00;1.70;;;;;;;24.30;100.00;100576.28;4936958;29;20228;-90
2023/07/10 02:09:27;;;;;;;1.85;1.70;;;;;;;24.22;100.00;100572.06;4938993;29;20690;-89
2023/07/10 02:11:54;;;;;;;1.50;1.40;;;;;;;24.08;100.00;100596.09;4920304;29;20578;-87
2023/07/10 02:14:21;;;;;;;0.70;0.60;;;;;;;23.94;100.00;100596.72;4931338;29;20312;-91
2023/07/10 02:16:48;;;;;;;1.17;1.00;;;;;;;23.86;100.00;100628.59;4921834;29;20228;-90
2023/07/10 02:19:15;;;;;;;6.93;1.98;;;;;;;23.54;100.00;100643.44;4935179;29;20217;-90
2023/07/10 02:21:42;;;;;;;0.50;0.50;;;;;;;23.55;100.00;100653.28;4941931;29;20240;-90
2023/07/10 02:24:09;;;;;;;12.23;4.15;;;;;;;23.70;100.00;100610.41;4926308;29;20240;-90
2023/07/10 02:26:36;;;;;;;1.05;0.75;;;;;;;23.98;100.00;100600.16;4929485;29;20233;-89
2023/07/10 02:29:03;;;;;;;11.27;4.47;;;;;;;24.03;100.00;100608.06;4940767;29;20235;-90
2023/07/10 02:31:30;;;;;;;0.63;0.63;;;;;;;23.78;100.00;100649.63;4943870;29;20236;-82
2023/07/10 02:33:57;;;;;;;0.50;0.50;;;;;;;23.42;100.00;100676.28;4939881;29;20253;-84
2023/07/10 02:36:27;;;;;;;0.60;0.60;;;;;;;23.41;100.00;100688.03;4944479;29;20236;-84
2023/07/10 02:38:54;;;;;;;0.68;0.68;;;;;;;23.61;100.00;100692.66;4930072;29;20233;-83
2023/07/10 02:41:21;;;;;;;0.50;0.50;;;;;;;23.69;100.00;100701.31;4942304;29;20272;-84
2023/07/10 02:43:47;;;;;;;0.57;0.57;;;;;;;23.61;100.00;100696.25;4943126;29;20226;-82
2023/07/10 02:46:14;;;;;;;14.73;5.07;;;;;;;23.62;100.00;100691.72;4922637;29;20260;-82
2023/07/10 02:48:41;;;;;;;0.50;0.50;;;;;;;23.46;100.00;100761.59;4940882;29;20233;-82
2023/07/10 02:51:08;;;;;;;7.25;2.97;;;;;;;23.38;100.00;100770.91;4940792;29;20229;-82
2023/07/10 02:53:34;;;;;;;0.40;0.40;;;;;;;23.36;100.00;100760.16;4946657;29;20240;-82
2023/07/10 02:56:01;;;;;;;10.07;3.95;;;;;;;23.45;100.00;100770.66;4939941;29;20708;-82
2023/07/10 02:58:28;;;;;;;0.90;0.80;;;;;;;23.54;100.00;100754.13;4929820;29;20225;-82
2023/07/10 03:01:00;;;;;;;1.10;0.85;;;;;;;23.30;100.00;100766.69;4921364;29;20710;-82
2023/07/10 03:03:27;;;;;;;1.60;1.50;;;;;;;23.27;100.00;100801.00;4940955;29;20244;-83
2023/07/10 03:05:59;;;;;;;1.90;1.35;;;;;;;23.14;100.00;100823.97;4942633;28;20242;-82
2023/07/10 03:08:27;;;;;;;1.92;1.33;;;;;;;23.16;100.00;100836.47;4936815;29;20244;-81
2023/07/10 03:11:05;;;;;;;1.67;1.13;;;;;;;23.19;100.00;100851.66;4928069;29;20237;-81
2023/07/10 03:13:32;;;;;;;1.00;0.90;;;;;;;23.15;100.00;100863.50;4922403;29;20292;-88
2023/07/10 03:16:00;;;;;;;6.35;2.42;;;;;;;23.14;100.00;100876.13;4937392;29;20304;-87
2023/07/10 03:18:28;;;;;;;0.68;0.68;;;;;;;22.99;100.00;100880.25;4940695;29;20229;-90
2023/07/10 03:20:54;;;;;;;0.80;0.80;;;;;;;22.84;100.00;100883.47;4926049;29;20236;-86
2023/07/10 03:23:21;;;;;;;1.13;1.00;;;;;;;22.82;100.00;100885.34;4931218;28;20253;-80
2023/07/10 03:25:48;;;;;;;1.73;1.15;;;;;;;22.85;100.00;100892.44;4940967;28;20232;-83
2023/07/10 03:28:15;;;;;;;6.25;1.95;;;;;;;22.91;100.00;100895.81;4937815;29;20299;-84
2023/07/10 03:30:43;;;;;;;1.00;0.70;;;;;;;22.95;100.00;100916.34;4941448;29;20227;-83
2023/07/10 03:33:13;;;;;;;14.43;4.88;;;;;;;22.91;100.00;100920.09;4935714;28;20226;-83
2023/07/10 03:35:41;;;;;;;1.02;0.93;;;;;;;22.84;100.00;100923.94;4943254;28;20602;-84
2023/07/10 03:38:08;;;;;;;9.50;3.67;;;;;;;22.84;100.00;100923.94;4936648;29;20275;-83
2023/07/10 03:40:35;;;;;;;1.27;1.17;;;;;;;22.77;100.00;100956.50;4941192;29;20234;-84
2023/07/10 03:43:02;;;;;;;6.53;2.15;;;;;;;22.79;100.00;100965.44;4937655;28;20229;-83
2023/07/10 03:45:30;;;;;;;0.88;0.73;;;;;;;22.74;100.00;100978.19;4921022;29;20234;-83
2023/07/10 03:47:57;;;;;;;1.33;1.23;;;;;;;22.66;100.00;100989.22;4929892;29;20238;-82
2023/07/10 03:50:24;;;;;;;1.10;1.00;;;;;;;22.33;100.00;100985.75;4919842;29;20251;-83
2023/07/10 03:52:51;;;;;;;0.98;0.85;;;;;;;22.24;100.00;100994.13;4938765;29;20225;-83
2023/07/10 03:55:18;;;;;;;2.65;1.15;;;;;;;22.40;100.00;100999.94;4927737;29;20286;-83
2023/07/10 03:57:44;;;;;;;0.73;0.70;;;;;;;22.39;100.00;101000.88;4944191;29;20232;-82
2023/07/10 04:00:11;;;;;;;2.58;1.33;;;;;;;22.39;100.00;101008.94;4940719;29;20233;-83
2023/07/10 04:02:38;;;;;;;0.73;0.63;;;;;;;22.35;100.00;101030.59;4926818;29;20241;-82
2023/07/10 04:05:05;;;;;;;2.58;1.58;;;;;;;22.29;100.00;101029.91;4940006;29;20313;-82
2023/07/10 04:07:32;;;;;;;1.23;1.00;;;;;;;22.35;100.00;101032.41;4944801;29;20237;-83
2023/07/10 04:09:59;;;;;;;1.23;1.17;;;;;;;22.33;100.00;101039.66;4940246;29;20217;-82
2023/07/10 04:12:25;;;;;;;0.63;0.60;;;;;;;22.28;100.00;101042.50;4927989;29;20237;-83
2023/07/10 04:14:54;;;;;;;0.60;0.60;;;;;;;22.29;100.00;101040.69;4945174;29;20296;-83
2023/07/10 04:17:20;;;;;;;0.90;0.90;;;;;;;22.35;100.00;101054.84;4940960;29;20237;-82
2023/07/10 04:19:48;;;;;;;0.70;0.70;;;;;;;22.34;100.00;101065.69;4927716;29;20233;-81
2023/07/10 04:22:14;;;;;;;3.30;1.75;;;;;;;22.45;100.00;101077.03;4940773;29;20237;-82
2023/07/10 04:24:41;;;;;;;2.67;1.60;;;;;;;22.46;100.00;101069.81;4944583;29;20666;-82
2023/07/10 04:27:08;;;;;;;2.47;1.35;;;;;;;22.57;100.00;101078.47;4940674;29;20222;-82
2023/07/10 04:29:36;;;;;;;0.95;0.85;;;;;;;22.66;100.00;101065.59;4944474;29;20612;-82
2023/07/10 04:32:02;;;;;;;2.75;1.65;;;;;;;22.71;100.00;101057.34;4938002;29;20234;-82
2023/07/10 04:34:29;;;;;;;0.88;0.80;;;;;;;22.77;100.00;101070.66;4943766;29;20264;-83
2023/07/10 04:36:56;;;;;;;1.10;0.90;;;;;;;22.76;100.00;101068.00;4943102;29;20229;-82
2023/07/10 04:39:22;;;;;;;0.85;0.85;;;;;;;22.78;100.00;101058.03;4936206;29;20234;-83
2023/07/10 04:41:49;;;;;;;0.73;0.65;;;;;;;22.84;100.00;101056.06;4925269;29;20229;-83
2023/07/10 04:44:16;;;;;;;1.00;0.73;;;;;;;22.88;100.00;101054.16;4937509;28;20245;-83
2023/07/10 04:46:43;;;;;;;1.42;1.33;;;;;;;22.99;100.00;101016.94;4945000;28;20236;-82
2023/07/10 04:49:09;;;;;;;2.42;1.77;;;;;;;23.03;100.00;100988.94;4940851;29;20248;-86
2023/07/10 04:51:36;;;;;;;1.50;1.40;;;;;;;23.12;100.00;100982.34;4942500;29;20252;-79
2023/07/10 04:54:03;;;;;;;0.88;0.88;;;;;;;23.20;100.00;100980.25;4942355;28;20240;-80
2023/07/10 04:56:29;;;;;;;0.80;0.80;;;;;;;23.27;100.00;100969.19;4945966;29;20222;-80
2023/07/10 04:58:58;;;;;;;0.95;0.90;;;;;;;23.31;100.00;100946.56;4937284;29;20230;-78
2023/07/10 05:01:26;;;;;;;0.35;0.35;;;;;;;23.36;100.00;100938.31;4944553;29;20240;-80
2023/07/10 05:03:53;;;;;;;0.60;0.60;;;;;;;23.35;100.00;100941.06;4939496;29;20230;-80
2023/07/10 05:06:21;;;;;;;0.95;0.82;;;;;;;23.34;100.00;100950.97;4923969;29;20241;-80
2023/07/10 05:08:48;;;;;;;0.93;0.82;;;;;;;23.35;100.00;100947.34;4946166;29;20221;-79
2023/07/10 05:11:15;;;;;;;0.95;0.82;;;;;;;23.36;100.00;100957.19;4930506;29;20583;-80
2023/07/10 05:13:41;;;;;;;0.52;0.52;;;;;;;23.35;100.00;100941.94;4910177;29;20225;-80
2023/07/10 05:16:08;;;;;;;1.75;1.55;;;;;;;23.42;100.00;100937.22;4938719;29;20229;-80
2023/07/10 05:18:35;;;;;;;0.90;0.90;;;;;;;23.50;100.00;100929.75;4929227;29;20297;-80
2023/07/10 05:21:02;;;;;;;2.08;1.20;;;;;;;23.53;100.00;100948.53;4921098;29;20236;-83
2023/07/10 05:23:30;;;;;;;0.70;0.70;;;;;;;23.57;100.00;100974.50;4945494;29;20224;-82
2023/07/10 05:25:58;;;;;;;0.50;0.50;;;;;;;23.58;100.00;101000.56;4938485;29;20704;-82
2023/07/10 05:28:26;;;;;;;0.93;0.85;;;;;;;23.56;100.00;101013.25;4945912;29;20701;-83
2023/07/10 05:30:54;;;;;;;0.85;0.85;;;;;;;23.53;100.00;101021.41;4945165;29;20268;-83
2023/07/10 05:33:21;;;;;;;0.50;0.50;;;;;;;23.52;100.00;101035.84;4940275;29;20241;-83
2023/07/10 05:35:49;;;;;;;0.45;0.45;;;;;;;23.50;100.00;101060.19;4941665;28;20237;-83
2023/07/10 05:38:16;;;;;;;0.50;0.50;;;;;;;23.55;100.00;101049.28;4937016;29;21230;-82
2023/07/10 05:40:43;;;;;;;0.40;0.40;;;;;;;23.54;100.00;101070.00;4942729;29;20238;-82
2023/07/10 05:43:10;;;;;;;7.38;3.13;;;;;;;23.65;100.00;101055.25;4936748;29;20235;-83
2023/07/10 05:45:36;;;;;;;0.57;0.57;;;;;;;23.79;100.00;101043.00;4942438;29;20226;-83
2023/07/10 05:48:03;;;;;;;4.53;1.85;;;;;;;23.88;100.00;101026.47;4941765;29;20229;-83
2023/07/10 05:50:30;;;;;;;0.57;0.57;;;;;;;23.83;100.00;101046.47;4941451;29;20221;-78
2023/07/10 05:52:57;;;;;;;0.30;0.30;;;;;;;23.97;100.00;101052.25;4938723;29;20241;-83
2023/07/10 05:55:24;;;;;;;0.60;0.60;;;;;;;24.06;100.00;101070.84;4940440;29;20244;-83
2023/07/10 05:57:50;;;;;;;0.38;0.38;;;;;;;24.21;100.00;101048.66;4941318;28;20229;-83
2023/07/10 06:00:17;;;;;;;0.40;0.40;;;;;;;24.33;100.00;101043.75;4943032;29;20623;-83
2023/07/10 06:02:44;;;;;;;0.57;0.57;;;;;;;24.39;100.00;101043.53;4931375;29;20228;-83
2023/07/10 06:05:11;;;;;;;1.45;1.23;;;;;;;24.64;100.00;101060.56;4945057;29;20257;-83
2023/07/10 06:07:38;;;;;;;0.77;0.77;;;;;;;24.60;100.00;101039.09;4949643;29;20237;-83
2023/07/10 06:10:05;;;;;;;1.95;1.02;;;;;;;24.73;100.00;101048.53;4927013;29;20244;-83
2023/07/10 06:12:32;;;;;;;0.40;0.40;;;;;;;24.92;100.00;101024.31;4947921;29;20244;-83
2023/07/10 06:14:58;;;;;;;1.50;1.08;;;;;;;24.90;100.00;101002.72;4944239;29;20230;-83
2023/07/10 06:17:25;;;;;;;0.55;0.55;;;;;;;24.63;100.00;100977.66;4948134;29;20228;-83
2023/07/10 06:19:52;;;;;;;0.50;0.50;;;;;;;24.90;100.00;100986.50;4948340;29;20251;-83
2023/07/10 06:22:19;;;;;;;0.35;0.35;;;;;;;24.93;100.00;100971.97;4943624;29;20245;-82
2023/07/10 06:24:45;;;;;;;0.60;0.60;;;;;;;25.11;100.00;100955.88;4943802;29;20707;-83
2023/07/10 06:27:12;;;;;;;1.65;1.00;;;;;;;25.15;100.00;100945.78;4944352;29;20237;-83
2023/07/10 06:29:39;;;;;;;0.60;0.60;;;;;;;25.20;100.00;100944.63;4948465;29;20237;-83
2023/07/10 06:32:06;;;;;;;1.10;0.85;;;;;;;25.30;100.00;100942.41;4943398;29;20551;-83
2023/07/10 06:34:33;;;;;;;0.43;0.43;;;;;;;25.62;100.00;100934.69;4947835;29;20229;-84
2023/07/10 06:37:00;;;;;;;1.10;0.88;;;;;;;25.71;100.00;100931.59;4944316;29;20232;-83
2023/07/10 06:39:27;;;;;;;1.13;1.00;;;;;;;25.34;100.00;100898.00;4942124;29;20250;-83
2023/07/10 06:41:54;;;;;;;0.40;0.40;;;;;;;25.48;100.00;100913.63;4926683;29;20241;-83
2023/07/10 06:44:21;;;;;;;0.50;0.50;;;;;;;25.81;100.00;100919.38;4943362;29;20229;-83
2023/07/10 06:46:47;;;;;;;0.60;0.60;;;;;;;25.78;100.00;100914.09;4948726;29;20243;-83
2023/07/10 06:49:14;;;;;;;1.67;1.25;;;;;;;25.82;100.00;100886.78;4942401;29;20221;-83
2023/07/10 06:51:41;;;;;;;0.50;0.50;;;;;;;25.57;100.00;100858.16;4947158;29;20233;-84
2023/07/10 06:54:08;;;;;;;1.45;0.88;;;;;;;25.62;100.00;100846.16;4941424;29;20244;-83
2023/07/10 06:56:35;;;;;;;0.43;0.43;;;;;;;25.86;100.00;100855.00;4947579;29;20228;-84
2023/07/10 06:59:01;;;;;;;3.67;1.75;;;;;;;25.90;100.00;100844.91;4942400;29;20229;-83
2023/07/10 07:01:28;;;;;;;0.68;0.65;;;;;;;25.62;100.00;100813.66;4947109;29;20247;-83
2023/07/10 07:03:55;;;;;;;0.63;0.50;;;;;;;25.78;100.00;100819.28;4945190;29;20335;-82
2023/07/10 07:06:22;;;;;;;0.60;0.60;;;;;;;25.86;100.00;100818.91;4943072;29;20754;-83
2023/07/10 07:08:51;;;;;;;1.52;0.90;;;;;;;25.78;100.00;100794.88;4947431;28;20232;-83
2023/07/10 07:11:18;;;;;;;0.40;0.40;;;;;;;25.82;100.00;100810.03;4940821;28;20247;-83
2023/07/10 07:13:45;;;;;;;0.40;0.40;;;;;;;26.01;100.00;100808.22;4942486;29;20712;-87
2023/07/10 07:16:13;;;;;;;8.07;3.65;;;;;;;26.11;100.00;100797.81;4933895;29;20280;-86
2023/07/10 07:18:40;;;;;;;0.32;0.32;;;;;;;26.39;100.00;100802.75;4944206;29;20244;-87
2023/07/10 07:21:13;;;;;;;5.53;2.78;;;;;;;26.12;100.00;100758.91;4938887;29;20237;-83
2023/07/10 07:23:40;;;;;;;0.30;0.30;;;;;;;26.53;100.00;100770.38;4927504;29;20221;-85
2023/07/10 07:26:07;;;;;;;8.15;3.22;;;;;;;26.36;100.00;100732.41;4929439;29;20279;-85
2023/07/10 07:28:34;;;;;;;0.40;0.40;;;;;;;26.49;100.00;100752.53;4940965;28;20240;-84
2023/07/10 07:31:02;;;;;;;6.65;3.20;;;;;;;26.59;100.00;100739.34;4926725;29;20252;-85
2023/07/10 07:33:31;;;;;;;0.30;0.30;;;;;;;26.77;100.00;100754.66;4938836;28;20244;-83
2023/07/10 07:36:01;;;;;;;0.45;0.45;;;;;;;26.87;100.00;100742.34;4936883;28;20236;-84
2023/07/10 07:38:28;;;;;;;0.30;0.30;;;;;;;26.94;100.00;100737.47;4933667;29;20233;-85
2023/07/10 07:40:59;;;;;;;0.30;0.30;;;;;;;26.82;100.00;100709.16;4923200;29;20304;-85
2023/07/10 07:43:28;;;;;;;0.30;0.30;;;;;;;26.97;100.00;100729.16;4900142;29;20324;-84
2023/07/10 07:45:56;;;;;;;0.10;0.10;;;;;;;26.77;100.00;100705.81;4913881;29;20760;-83
2023/07/10 07:48:26;;;;;;;7.70;2.80;;;;;;;26.95;100.00;100693.97;4834972;29;20248;-84
2023/07/10 07:51:05;;;;;;;0.30;0.30;;;;;;;26.63;100.00;100656.84;4900728;29;20245;-84
2023/07/10 07:53:34;;;;;;;0.38;0.38;;;;;;;27.28;100.00;100698.53;4927337;29;20296;-82
2023/07/10 07:56:02;;;;;;;7.07;3.05;;;;;;;27.60;100.00;100713.94;4914498;29;20237;-85
2023/07/10 07:58:29;;;;;;;0.30;0.30;;;;;;;27.36;100.00;100685.41;4916631;29;20317;-84
2023/07/10 08:00:56;;;;;;;0.30;0.30;;;;;;;27.21;100.00;100664.53;4941722;29;20225;-86
2023/07/10 08:03:23;;;;;;;0.20;0.20;;;;;;;27.29;100.00;100657.69;4934253;29;20233;-84
2023/07/10 08:05:50;;;;;;;0.32;0.32;;;;;;;28.22;100.00;100698.50;4938083;29;20236;-85
2023/07/10 08:08:17;;;;;;;0.28;0.28;;;;;;;27.88;100.00;100652.53;4916234;29;20390;-85
2023/07/10 08:10:47;;;;;;;0.60;0.60;;;;;;;28.11;100.00;100634.84;4941671;29;20227;-86
2023/07/10 08:13:15;;;;;;;9.00;4.25;;;;;;;28.46;100.00;100652.66;4933287;28;20225;-85
2023/07/10 08:15:42;;;;;;;0.40;0.40;;;;;;;27.86;100.00;100587.41;4942703;29;20225;-85
2023/07/10 08:18:09;;;;;;;3.28;1.60;;;;;;;27.91;100.00;100598.88;4938037;29;20224;-85
2023/07/10 08:20:36;;;;;;;0.65;0.40;;;;;;;28.73;100.00;100628.31;4941603;28;20225;-84
2023/07/10 08:23:04;;;;;;;7.00;4.00;;;;;;;28.44;100.00;100589.28;4935193;29;20314;-86
2023/07/10 08:25:31;;;;;;;0.68;0.68;;;;;;;28.73;100.00;100611.97;4940934;29;20240;-85
2023/07/10 08:27:58;;;;;;;1.50;1.05;;;;;;;28.47;100.00;100540.13;4924376;29;20237;-86
2023/07/10 08:30:26;;;;;;;0.35;0.35;;;;;;;28.50;100.00;100558.97;4940014;29;20244;-86
2023/07/10 08:32:53;;;;;;;0.40;0.40;;;;;;;27.94;100.00;100502.69;4934888;29;20225;-84
2023/07/10 08:35:21;;;;;;;4.45;1.25;;;;;;;28.15;100.00;100536.69;4935047;29;20240;-85
2023/07/10 08:37:49;;;;;;;0.30;0.30;;;;;;;28.74;100.00;100578.34;4939967;29;20241;-85
2023/07/10 08:40:25;;;;;;;1.45;0.68;;;;;;;29.60;100.00;100600.88;4936072;28;20229;-85
2023/07/10 08:42:52;;;;;;;0.30;0.30;;;;;;;29.52;100.00;100535.97;4941843;29;20233;-86
2023/07/10 08:45:33;;;;;;;0.63;0.63;;;;;;;28.78;100.00;100473.75;4934962;29;20255;-85
2023/07/10 08:48:35;;;;;;;8.48;3.17;;;;;;;29.48;100.00;100547.19;4919867;29;20232;-85
2023/07/10 08:51:13;;;;;;;0.75;0.73;;;;;;;29.12;100.00;100458.78;4936714;29;20232;-86
2023/07/10 08:53:45;;;;;;;0.20;0.20;;;;;;;29.62;100.00;100470.81;4942520;29;20256;-86
2023/07/10 08:56:28;;;;;;;4.30;1.08;;;;;;;29.11;100.00;100420.75;4930924;29;20236;-86
2023/07/10 08:59:01;;;;;;;0.40;0.40;;;;;;;29.33;100.00;100436.50;4926215;29;20225;-85
2023/07/10 09:01:35;;;;;;;0.22;0.22;;;;;;;29.27;100.00;100426.91;4907025;29;20240;-86
2023/07/10 09:04:04;;;;;;;3.70;1.75;;;;;;;30.35;100.00;100487.47;4920879;29;20761;-86
2023/07/10 09:06:34;;;;;;;0.38;0.38;;;;;;;29.54;100.00;100377.81;4942130;29;20229;-85
2023/07/10 09:09:12;;;;;;;4.45;2.22;;;;;;;29.58;100.00;100366.59;4937304;29;20241;-86
2023/07/10 09:11:39;;;;;;;0.22;0.22;;;;;;;29.89;100.00;100406.16;4925121;29;20241;-86
2023/07/10 09:14:34;;;;;;;7.70;3.67;;;;;;;30.31;100.00;100416.88;4936639;29;20231;-86
2023/07/10 09:17:01;;;;;;;1.77;1.13;;;;;;;30.21;100.00;100386.66;4936500;29;20239;-86
2023/07/10 09:19:28;;;;;;;0.40;0.40;;;;;;;30.45;100.00;100412.13;4924281;29;20228;-86
2023/07/10 09:21:55;;;;;;;0.57;0.57;;;;;;;29.87;100.00;100363.63;4935554;29;20233;-85
2023/07/10 09:24:23;;;;;;;0.40;0.40;;;;;;;29.47;100.00;100332.91;4937420;28;20252;-86
2023/07/10 09:26:50;;;;;;;0.30;0.30;;;;;;;30.03;100.00;100375.25;4942538;29;20232;-86
2023/07/10 09:29:26;;;;;;;0.50;0.50;;;;;;;30.25;100.00;100337.22;4936332;29;20247;-87
2023/07/10 09:32:13;;;;;;;0.20;0.20;;;;;;;29.82;100.00;100314.91;4920791;28;20236;-86
2023/07/10 09:34:49;;;;;;;0.38;0.38;;;;;;;29.56;100.00;100305.88;4937239;29;20316;-86
2023/07/10 09:37:21;;;;;;;4.13;1.75;;;;;;;30.00;100.00;100307.25;4939466;29;20599;-86
2023/07/10 09:39:48;;;;;;;0.30;0.30;;;;;;;29.60;100.00;100273.84;4940247;29;20248;-85
2023/07/10 09:42:19;;;;;;;6.32;2.40;;;;;;;29.42;100.00;100250.63;4935676;29;20236;-86
2023/07/10 09:44:49;;;;;;;1.05;0.77;;;;;;;29.38;100.00;100260.00;4937067;29;20237;-87
2023/07/10 09:47:16;;;;;;;6.28;2.05;;;;;;;29.83;100.00;100300.28;4933964;28;20590;-86
2023/07/10 09:49:57;;;;;;;0.68;0.68;;;;;;;29.39;100.00;100226.31;4942331;29;20221;-86
2023/07/10 09:52:29;;;;;;;1.02;0.90;;;;;;;29.69;100.00;100294.09;4918990;29;20228;-85
2023/07/10 09:55:11;;;;;;;0.90;0.70;;;;;;;30.01;100.00;100291.78;4922906;29;20241;-85
2023/07/10 09:57:47;;;;;;;1.00;0.70;;;;;;;29.93;100.00;100265.06;4937093;29;20248;-86
2023/07/10 10:00:18;;;;;;;10.30;4.38;;;;;;;30.41;100.00;100262.41;4935586;29;20231;-86
2023/07/10 10:03:10;;;;;;;0.65;0.57;;;;;;;30.50;100.00;100226.22;4939259;29;20235;-86
2023/07/10 10:05:40;;;;;;;0.98;0.88;;;;;;;31.13;100.00;100253.13;4922214;29;20240;-85
2023/07/10 10:08:28;;;;;;;2.60;1.35;;;;;;;30.96;100.00;100222.66;4936159;28;20235;-85
2023/07/10 10:11:06;;;;;;;1.05;0.70;;;;;;;30.61;100.00;100200.88;4940902;29;20239;-85
2023/07/10 10:13:42;;;;;;;0.77;0.60;;;;;;;30.89;100.00;100206.75;4920670;29;20232;-85
2023/07/10 10:16:41;;;;;;;1.90;1.48;;;;;;;30.76;100.00;100112.31;4932056;29;20316;-84
2023/07/10 10:19:18;;;;;;;1.20;1.05;;;;;;;30.55;95.64;100027.53;4918636;29;20225;-86
2023/07/10 10:21:45;;;;;;;0.82;0.82;;;;;;;30.22;89.51;99928.31;4925209;29;20716;-85
2023/07/10 10:24:13;;;;;;;1.17;0.85;;;;;;;30.59;83.92;99906.22;4934636;29;20229;-85
2023/07/10 10:26:50;;;;;;;0.50;0.50;;;;;;;30.32;81.68;99815.72;4943145;29;20233;-85
2023/07/10 10:29:30;;;;;;;0.65;0.65;;;;;;;30.53;79.94;99817.53;4937531;29;20244;-84
2023/07/10 10:32:25;;;;;;;0.75;0.60;;;;;;;31.03;74.55;99797.88;4936361;28;20237;-84
2023/07/10 10:35:16;;;;;;;0.90;0.77;;;;;;;30.95;73.51;99757.59;4941717;28;20233;-84
2023/07/10 10:38:14;;;;;;;1.35;0.90;;;;;;;31.45;68.05;99730.50;4938304;29;20221;-85
2023/07/10 10:41:06;;;;;;;2.33;1.20;;;;;;;31.46;70.49;99737.69;4939904;29;20233;-84
2023/07/10 10:43:50;;;;;;;0.88;0.75;;;;;;;31.59;66.23;99680.06;4939141;28;20232;-85
2023/07/10 10:46:26;;;;;;;1.33;0.77;;;;;;;31.61;63.94;99637.94;4929569;29;20251;-85
2023/07/10 10:49:18;;;;;;;1.15;0.80;;;;;;;31.87;62.61;99626.50;4939845;29;20235;-85
2023/07/10 10:51:55;;;;;;;1.58;1.25;;;;;;;32.06;67.34;99693.03;4942840;29;20221;-83
2023/07/10 10:54:26;;;;;;;1.17;1.08;;;;;;;31.93;61.47;99585.78;4937438;29;20236;-83
2023/07/10 10:56:59;;;;;;;1.85;1.20;;;;;;;32.24;64.37;99656.81;4938452;29;20247;-84
2023/07/10 10:59:36;;;;;;;1.10;0.80;;;;;;;32.31;64.50;99641.53;4945085;29;20229;-85
2023/07/10 11:02:15;;;;;;;2.33;1.23;;;;;;;32.13;60.91;99560.16;4924231;29;20236;-83
2023/07/10 11:04:45;;;;;;;0.90;0.70;;;;;;;32.11;61.26;99559.44;4946067;29;20280;-84
2023/07/10 11:07:14;;;;;;;2.28;1.40;;;;;;;32.62;57.10;99536.38;4924487;29;20228;-84
2023/07/10 11:10:00;;;;;;;0.90;0.77;;;;;;;32.52;56.16;99486.28;4928104;29;20674;-84
2023/07/10 11:12:31;;;;;;;1.70;1.15;;;;;;;31.81;57.73;99418.28;4922984;29;20243;-85
2023/07/10 11:15:02;;;;;;;0.98;0.77;;;;;;;32.01;54.07;99369.03;4909400;29;20228;-83
2023/07/10 11:17:29;;;;;;;0.68;0.50;;;;;;;32.66;53.85;99447.47;4944756;29;20241;-85
2023/07/10 11:19:55;;;;;;;1.23;1.13;;;;;;;32.46;52.81;99375.50;4941464;29;20255;-84
2023/07/10 11:22:28;;;;;;;1.27;1.02;;;;;;;32.31;52.68;99349.66;4940589;29;20241;-82
2023/07/10 11:24:57;;;;;;;0.90;0.70;;;;;;;32.42;51.17;99345.84;4943643;29;20233;-83
2023/07/10 11:27:33;;;;;;;1.00;0.82;;;;;;;32.56;54.20;99411.06;4939028;29;20245;-85
2023/07/10 11:30:03;;;;;;;2.28;1.02;;;;;;;32.46;51.27;99339.94;4940194;29;20248;-83
2023/07/10 11:32:35;;;;;;;1.30;0.90;;;;;;;32.61;52.69;99369.56;4942267;29;20249;-83